Terminal Aerodrome Forecast
Issued by NWS Cleveland, OH

Home | Current Version | Previous Version | Text Only | Print | Product List | Glossary Off
Versions: 1 2 3 4 5 6 7 8 9 10 11 12 13 14 15 16

206
FTUS41 KCLE 251720
TAFTOL
TAF
KTOL 251720Z 2518/2618 20009KT P6SM SCT250
     FM252200 19005KT P6SM OVC250
     FM260500 21005KT P6SM OVC100
     FM260800 VRB03KT P6SM VCTS SCT025CB OVC035
     FM261000 VRB03KT 4SM -TSRA OVC025CB
     FM261100 VRB03KT 4SM BR OVC100
     FM261400 22005KT P6SM BKN250=

USA.gov is the U.S. government's official web portal to all federal, state and local government web resources and services.